Aviation Digital Data Service (ADDS)

Output produced by TAFs form (2347 UTC 30 September 2016)
found at http://www.aviationweather.gov/adds/tafs/
 
KDEN 302253Z 03006KT 10SM SCT100 BKN140 23/06 A3018 RMK AO2 SLP152 T02280061
KDEN 302320Z 0100/0206 08007KT P6SM SCT100 BKN140 
     FM010200 15010KT P6SM BKN080 
     FM010400 24008KT P6SM SCT080 BKN120 
     FM011500 VRB05KT P6SM SCT080 SCT140 
     FM020200 24005KT P6SM VCTS SCT100CB BKN200